sensor_id;sensor_type;location;lat;lon;timestamp;P1;durP1;ratioP1;P2;durP2;ratioP2
50781;SDS011;36749;37.428;-121.972;2023-06-10T00:02:03;5.38;;;1.60;;
50781;SDS011;36749;37.428;-121.972;2023-06-10T00:04:29;6.93;;;1.80;;
50781;SDS011;36749;37.428;-121.972;2023-06-10T00:06:55;6.82;;;1.60;;
50781;SDS011;36749;37.428;-121.972;2023-06-10T00:09:22;7.22;;;1.85;;
50781;SDS011;36749;37.428;-121.972;2023-06-10T00:11:48;4.78;;;1.73;;
50781;SDS011;36749;37.428;-121.972;2023-06-10T00:14:15;5.40;;;1.77;;
50781;SDS011;36749;37.428;-121.972;2023-06-10T00:16:41;1.90;;;1.45;;
50781;SDS011;36749;37.428;-121.972;2023-06-10T00:19:10;2.92;;;1.85;;
50781;SDS011;36749;37.428;-121.972;2023-06-10T00:21:39;9.98;;;2.47;;
50781;SDS011;36749;37.428;-121.972;2023-06-10T00:24:06;8.88;;;2.13;;
50781;SDS011;36749;37.428;-121.972;2023-06-10T00:26:40;4.88;;;1.80;;
50781;SDS011;36749;37.428;-121.972;2023-06-10T00:29:07;4.43;;;1.60;;
50781;SDS011;36749;37.428;-121.972;2023-06-10T00:31:37;4.90;;;2.08;;
50781;SDS011;36749;37.428;-121.972;2023-06-10T00:34:03;17.15;;;2.28;;
50781;SDS011;36749;37.428;-121.972;2023-06-10T00:36:29;4.90;;;1.67;;
50781;SDS011;36749;37.428;-121.972;2023-06-10T00:38:56;6.43;;;1.50;;
50781;SDS011;36749;37.428;-121.972;2023-06-10T00:41:23;3.53;;;1.50;;
50781;SDS011;36749;37.428;-121.972;2023-06-10T00:43:49;5.28;;;1.38;;
50781;SDS011;36749;37.428;-121.972;2023-06-10T00:46:15;7.15;;;1.50;;
50781;SDS011;36749;37.428;-121.972;2023-06-10T00:48:42;10.75;;;2.55;;
50781;SDS011;36749;37.428;-121.972;2023-06-10T00:51:09;4.22;;;1.73;;
50781;SDS011;36749;37.428;-121.972;2023-06-10T00:53:36;10.82;;;2.00;;
50781;SDS011;36749;37.428;-121.972;2023-06-10T00:56:03;8.45;;;1.95;;
50781;SDS011;36749;37.428;-121.972;2023-06-10T00:58:29;4.47;;;1.70;;
50781;SDS011;36749;37.428;-121.972;2023-06-10T01:00:56;9.70;;;1.58;;
50781;SDS011;36749;37.428;-121.972;2023-06-10T01:03:23;11.90;;;2.03;;
50781;SDS011;36749;37.428;-121.972;2023-06-10T01:11:52;7.25;;;1.58;;
50781;SDS011;36749;37.428;-121.972;2023-06-10T01:14:23;9.52;;;1.92;;
50781;SDS011;36749;37.428;-121.972;2023-06-10T01:16:50;4.45;;;1.40;;
50781;SDS011;36749;37.428;-121.972;2023-06-10T01:19:18;2.72;;;1.38;;
50781;SDS011;36749;37.428;-121.972;2023-06-10T01:21:44;2.20;;;1.20;;
50781;SDS011;36749;37.428;-121.972;2023-06-10T01:24:14;4.43;;;1.45;;
50781;SDS011;36749;37.428;-121.972;2023-06-10T01:26:43;4.50;;;1.55;;
50781;SDS011;36749;37.428;-121.972;2023-06-10T01:29:21;10.13;;;2.00;;
50781;SDS011;36749;37.428;-121.972;2023-06-10T01:32:01;2.72;;;1.63;;
50781;SDS011;36749;37.428;-121.972;2023-06-10T01:34:31;30.95;;;4.53;;
50781;SDS011;36749;37.428;-121.972;2023-06-10T01:36:58;8.98;;;2.15;;
50781;SDS011;36749;37.428;-121.972;2023-06-10T01:39:25;17.98;;;2.60;;
50781;SDS011;36749;37.428;-121.972;2023-06-10T01:41:51;25.50;;;3.83;;
50781;SDS011;36749;37.428;-121.972;2023-06-10T01:44:20;19.77;;;2.55;;
50781;SDS011;36749;37.428;-121.972;2023-06-10T01:46:49;4.63;;;1.70;;
50781;SDS011;36749;37.428;-121.972;2023-06-10T01:49:15;1.83;;;1.50;;
50781;SDS011;36749;37.428;-121.972;2023-06-10T01:51:41;7.18;;;2.67;;
50781;SDS011;36749;37.428;-121.972;2023-06-10T01:54:07;7.82;;;2.50;;
50781;SDS011;36749;37.428;-121.972;2023-06-10T01:56:34;6.38;;;2.30;;
50781;SDS011;36749;37.428;-121.972;2023-06-10T01:59:00;2.90;;;2.58;;
50781;SDS011;36749;37.428;-121.972;2023-06-10T02:01:26;4.38;;;2.40;;
50781;SDS011;36749;37.428;-121.972;2023-06-10T02:03:52;6.30;;;2.92;;
50781;SDS011;36749;37.428;-121.972;2023-06-10T02:06:19;7.70;;;2.47;;
50781;SDS011;36749;37.428;-121.972;2023-06-10T02:08:45;7.15;;;2.83;;
50781;SDS011;36749;37.428;-121.972;2023-06-10T02:11:11;3.17;;;1.75;;
50781;SDS011;36749;37.428;-121.972;2023-06-10T02:13:38;4.05;;;1.70;;
50781;SDS011;36749;37.428;-121.972;2023-06-10T02:16:04;3.20;;;1.90;;
50781;SDS011;36749;37.428;-121.972;2023-06-10T02:18:51;2.40;;;1.33;;
50781;SDS011;36749;37.428;-121.972;2023-06-10T02:21:17;4.05;;;2.30;;
50781;SDS011;36749;37.428;-121.972;2023-06-10T02:23:43;6.28;;;3.30;;
50781;SDS011;36749;37.428;-121.972;2023-06-10T02:26:10;6.75;;;2.45;;
50781;SDS011;36749;37.428;-121.972;2023-06-10T02:28:36;4.43;;;2.30;;
50781;SDS011;36749;37.428;-121.972;2023-06-10T02:31:02;7.40;;;2.75;;
50781;SDS011;36749;37.428;-121.972;2023-06-10T02:33:28;3.13;;;1.80;;
50781;SDS011;36749;37.428;-121.972;2023-06-10T02:35:55;6.70;;;2.80;;
50781;SDS011;36749;37.428;-121.972;2023-06-10T02:38:21;4.55;;;2.20;;
50781;SDS011;36749;37.428;-121.972;2023-06-10T02:40:48;5.22;;;2.20;;
50781;SDS011;36749;37.428;-121.972;2023-06-10T02:43:14;5.10;;;4.18;;
50781;SDS011;36749;37.428;-121.972;2023-06-10T02:45:40;2.88;;;1.80;;
50781;SDS011;36749;37.428;-121.972;2023-06-10T02:48:06;7.97;;;1.92;;
50781;SDS011;36749;37.428;-121.972;2023-06-10T02:50:32;5.45;;;1.90;;
50781;SDS011;36749;37.428;-121.972;2023-06-10T02:52:58;3.47;;;1.60;;
50781;SDS011;36749;37.428;-121.972;2023-06-10T02:55:25;4.10;;;1.80;;
50781;SDS011;36749;37.428;-121.972;2023-06-10T02:57:51;6.90;;;3.22;;
50781;SDS011;36749;37.428;-121.972;2023-06-10T03:00:19;3.08;;;2.28;;
50781;SDS011;36749;37.428;-121.972;2023-06-10T03:02:46;6.93;;;1.90;;
50781;SDS011;36749;37.428;-121.972;2023-06-10T03:05:13;12.88;;;4.00;;
50781;SDS011;36749;37.428;-121.972;2023-06-10T03:07:40;9.75;;;3.42;;
50781;SDS011;36749;37.428;-121.972;2023-06-10T03:10:06;6.57;;;3.20;;
50781;SDS011;36749;37.428;-121.972;2023-06-10T03:12:33;3.95;;;1.95;;
50781;SDS011;36749;37.428;-121.972;2023-06-10T03:14:59;16.40;;;3.10;;
50781;SDS011;36749;37.428;-121.972;2023-06-10T03:17:25;11.85;;;3.08;;
50781;SDS011;36749;37.428;-121.972;2023-06-10T03:19:51;6.35;;;2.40;;
50781;SDS011;36749;37.428;-121.972;2023-06-10T03:22:18;8.55;;;2.17;;
50781;SDS011;36749;37.428;-121.972;2023-06-10T03:24:44;4.20;;;1.52;;
50781;SDS011;36749;37.428;-121.972;2023-06-10T03:27:12;4.50;;;1.35;;
50781;SDS011;36749;37.428;-121.972;2023-06-10T03:29:38;3.33;;;1.58;;
50781;SDS011;36749;37.428;-121.972;2023-06-10T03:32:05;7.03;;;1.38;;
50781;SDS011;36749;37.428;-121.972;2023-06-10T03:34:31;13.13;;;2.85;;
50781;SDS011;36749;37.428;-121.972;2023-06-10T03:36:59;11.85;;;2.45;;
50781;SDS011;36749;37.428;-121.972;2023-06-10T03:39:25;7.28;;;2.10;;
50781;SDS011;36749;37.428;-121.972;2023-06-10T03:41:54;3.72;;;1.45;;
50781;SDS011;36749;37.428;-121.972;2023-06-10T03:44:42;5.85;;;1.30;;
50781;SDS011;36749;37.428;-121.972;2023-06-10T03:47:09;3.47;;;1.10;;
50781;SDS011;36749;37.428;-121.972;2023-06-10T03:49:35;6.22;;;2.38;;
50781;SDS011;36749;37.428;-121.972;2023-06-10T03:52:01;6.93;;;2.03;;
50781;SDS011;36749;37.428;-121.972;2023-06-10T03:54:28;5.95;;;2.33;;
50781;SDS011;36749;37.428;-121.972;2023-06-10T03:56:54;3.83;;;1.60;;
50781;SDS011;36749;37.428;-121.972;2023-06-10T03:59:20;13.25;;;4.32;;
50781;SDS011;36749;37.428;-121.972;2023-06-10T04:01:46;6.93;;;2.70;;
50781;SDS011;36749;37.428;-121.972;2023-06-10T04:04:13;2.70;;;2.10;;
50781;SDS011;36749;37.428;-121.972;2023-06-10T04:06:43;6.13;;;2.95;;
50781;SDS011;36749;37.428;-121.972;2023-06-10T04:09:10;5.18;;;1.70;;
50781;SDS011;36749;37.428;-121.972;2023-06-10T04:11:36;7.30;;;1.98;;
50781;SDS011;36749;37.428;-121.972;2023-06-10T04:14:02;7.75;;;1.58;;
50781;SDS011;36749;37.428;-121.972;2023-06-10T04:16:29;4.95;;;2.58;;
50781;SDS011;36749;37.428;-121.972;2023-06-10T04:18:55;4.72;;;1.95;;
50781;SDS011;36749;37.428;-121.972;2023-06-10T04:21:21;10.95;;;2.60;;
50781;SDS011;36749;37.428;-121.972;2023-06-10T04:23:47;3.65;;;1.60;;
50781;SDS011;36749;37.428;-121.972;2023-06-10T04:26:13;2.58;;;1.17;;
50781;SDS011;36749;37.428;-121.972;2023-06-10T04:28:42;1.85;;;1.75;;
50781;SDS011;36749;37.428;-121.972;2023-06-10T04:31:09;1.15;;;1.13;;
50781;SDS011;36749;37.428;-121.972;2023-06-10T04:33:35;2.15;;;0.90;;
50781;SDS011;36749;37.428;-121.972;2023-06-10T04:36:01;2.10;;;1.58;;
50781;SDS011;36749;37.428;-121.972;2023-06-10T04:38:28;1.30;;;1.20;;
50781;SDS011;36749;37.428;-121.972;2023-06-10T04:40:56;1.55;;;1.45;;
50781;SDS011;36749;37.428;-121.972;2023-06-10T04:43:22;2.33;;;1.30;;
50781;SDS011;36749;37.428;-121.972;2023-06-10T04:45:48;3.03;;;1.80;;
50781;SDS011;36749;37.428;-121.972;2023-06-10T04:48:14;3.33;;;1.73;;
50781;SDS011;36749;37.428;-121.972;2023-06-10T04:50:40;1.80;;;1.60;;
50781;SDS011;36749;37.428;-121.972;2023-06-10T04:53:07;0.88;;;0.80;;
50781;SDS011;36749;37.428;-121.972;2023-06-10T04:55:33;1.65;;;0.88;;
50781;SDS011;36749;37.428;-121.972;2023-06-10T04:57:59;0.95;;;0.90;;
50781;SDS011;36749;37.428;-121.972;2023-06-10T05:00:26;2.63;;;1.33;;
50781;SDS011;36749;37.428;-121.972;2023-06-10T05:02:52;1.38;;;0.93;;
50781;SDS011;36749;37.428;-121.972;2023-06-10T05:05:18;1.00;;;0.90;;
50781;SDS011;36749;37.428;-121.972;2023-06-10T05:07:44;0.60;;;0.60;;
50781;SDS011;36749;37.428;-121.972;2023-06-10T05:10:13;1.63;;;0.98;;
50781;SDS011;36749;37.428;-121.972;2023-06-10T05:12:40;5.88;;;2.20;;
50781;SDS011;36749;37.428;-121.972;2023-06-10T05:15:06;5.85;;;2.60;;
50781;SDS011;36749;37.428;-121.972;2023-06-10T05:17:33;5.25;;;1.27;;
50781;SDS011;36749;37.428;-121.972;2023-06-10T05:20:03;9.48;;;1.30;;
50781;SDS011;36749;37.428;-121.972;2023-06-10T05:22:29;2.42;;;1.35;;
50781;SDS011;36749;37.428;-121.972;2023-06-10T05:24:55;7.53;;;2.72;;
50781;SDS011;36749;37.428;-121.972;2023-06-10T05:27:22;2.53;;;1.55;;
50781;SDS011;36749;37.428;-121.972;2023-06-10T05:29:48;7.72;;;2.67;;
50781;SDS011;36749;37.428;-121.972;2023-06-10T05:32:14;2.70;;;1.08;;
50781;SDS011;36749;37.428;-121.972;2023-06-10T05:34:41;3.20;;;1.80;;
50781;SDS011;36749;37.428;-121.972;2023-06-10T05:37:07;9.15;;;2.65;;
50781;SDS011;36749;37.428;-121.972;2023-06-10T05:39:33;6.68;;;2.85;;
50781;SDS011;36749;37.428;-121.972;2023-06-10T05:42:03;3.47;;;1.88;;
50781;SDS011;36749;37.428;-121.972;2023-06-10T05:44:32;4.85;;;1.58;;
50781;SDS011;36749;37.428;-121.972;2023-06-10T05:46:58;0.80;;;0.80;;
50781;SDS011;36749;37.428;-121.972;2023-06-10T05:49:24;4.35;;;1.70;;
50781;SDS011;36749;37.428;-121.972;2023-06-10T05:51:50;3.75;;;1.50;;
50781;SDS011;36749;37.428;-121.972;2023-06-10T05:54:18;4.07;;;1.95;;
50781;SDS011;36749;37.428;-121.972;2023-06-10T05:56:44;1.33;;;1.23;;
50781;SDS011;36749;37.428;-121.972;2023-06-10T05:59:10;3.75;;;1.63;;
50781;SDS011;36749;37.428;-121.972;2023-06-10T06:01:36;1.30;;;0.73;;
50781;SDS011;36749;37.428;-121.972;2023-06-10T06:04:03;0.90;;;0.90;;
50781;SDS011;36749;37.428;-121.972;2023-06-10T06:06:29;1.02;;;0.90;;
50781;SDS011;36749;37.428;-121.972;2023-06-10T06:08:55;1.95;;;0.95;;
50781;SDS011;36749;37.428;-121.972;2023-06-10T06:11:22;0.80;;;0.80;;
50781;SDS011;36749;37.428;-121.972;2023-06-10T06:13:48;1.00;;;1.00;;
50781;SDS011;36749;37.428;-121.972;2023-06-10T06:16:14;0.68;;;0.63;;
50781;SDS011;36749;37.428;-121.972;2023-06-10T06:18:40;1.00;;;1.00;;
50781;SDS011;36749;37.428;-121.972;2023-06-10T06:21:07;2.17;;;1.00;;
50781;SDS011;36749;37.428;-121.972;2023-06-10T06:23:33;1.52;;;0.77;;
50781;SDS011;36749;37.428;-121.972;2023-06-10T06:25:59;6.40;;;1.58;;
50781;SDS011;36749;37.428;-121.972;2023-06-10T06:28:25;7.05;;;1.20;;
50781;SDS011;36749;37.428;-121.972;2023-06-10T06:30:55;2.70;;;0.93;;
50781;SDS011;36749;37.428;-121.972;2023-06-10T06:33:21;14.23;;;2.45;;
50781;SDS011;36749;37.428;-121.972;2023-06-10T06:35:48;4.82;;;0.98;;
50781;SDS011;36749;37.428;-121.972;2023-06-10T06:38:14;2.08;;;0.90;;
50781;SDS011;36749;37.428;-121.972;2023-06-10T06:40:40;1.33;;;1.00;;
50781;SDS011;36749;37.428;-121.972;2023-06-10T06:43:07;2.05;;;1.30;;
50781;SDS011;36749;37.428;-121.972;2023-06-10T06:45:33;1.70;;;1.50;;
50781;SDS011;36749;37.428;-121.972;2023-06-10T06:47:59;1.65;;;0.90;;
50781;SDS011;36749;37.428;-121.972;2023-06-10T06:50:25;1.52;;;1.15;;
50781;SDS011;36749;37.428;-121.972;2023-06-10T06:52:52;2.15;;;1.35;;
50781;SDS011;36749;37.428;-121.972;2023-06-10T06:55:18;2.40;;;1.10;;
50781;SDS011;36749;37.428;-121.972;2023-06-10T06:57:44;4.82;;;1.92;;
50781;SDS011;36749;37.428;-121.972;2023-06-10T07:00:10;1.65;;;1.08;;
50781;SDS011;36749;37.428;-121.972;2023-06-10T07:02:37;1.35;;;1.25;;
50781;SDS011;36749;37.428;-121.972;2023-06-10T07:05:03;1.55;;;0.95;;
50781;SDS011;36749;37.428;-121.972;2023-06-10T07:07:30;3.28;;;1.23;;
50781;SDS011;36749;37.428;-121.972;2023-06-10T07:09:57;1.63;;;1.50;;
50781;SDS011;36749;37.428;-121.972;2023-06-10T07:12:23;1.30;;;1.20;;
50781;SDS011;36749;37.428;-121.972;2023-06-10T07:14:50;2.85;;;1.90;;
50781;SDS011;36749;37.428;-121.972;2023-06-10T07:17:16;1.33;;;1.23;;
50781;SDS011;36749;37.428;-121.972;2023-06-10T07:19:45;1.40;;;1.30;;
50781;SDS011;36749;37.428;-121.972;2023-06-10T07:22:12;1.48;;;1.38;;
50781;SDS011;36749;37.428;-121.972;2023-06-10T07:24:38;1.35;;;1.25;;
50781;SDS011;36749;37.428;-121.972;2023-06-10T07:27:04;0.95;;;0.90;;
50781;SDS011;36749;37.428;-121.972;2023-06-10T07:29:31;1.75;;;0.88;;
50781;SDS011;36749;37.428;-121.972;2023-06-10T07:31:57;2.22;;;1.20;;
50781;SDS011;36749;37.428;-121.972;2023-06-10T07:34:23;1.75;;;1.13;;
50781;SDS011;36749;37.428;-121.972;2023-06-10T07:36:49;3.28;;;1.77;;
50781;SDS011;36749;37.428;-121.972;2023-06-10T07:39:15;1.77;;;1.27;;
50781;SDS011;36749;37.428;-121.972;2023-06-10T07:41:42;1.98;;;1.42;;
50781;SDS011;36749;37.428;-121.972;2023-06-10T07:44:08;3.63;;;1.40;;
50781;SDS011;36749;37.428;-121.972;2023-06-10T07:46:34;2.20;;;1.50;;
50781;SDS011;36749;37.428;-121.972;2023-06-10T07:49:00;1.60;;;1.50;;
50781;SDS011;36749;37.428;-121.972;2023-06-10T07:51:27;2.03;;;1.60;;
50781;SDS011;36749;37.428;-121.972;2023-06-10T07:53:53;1.75;;;1.30;;
50781;SDS011;36749;37.428;-121.972;2023-06-10T07:56:19;1.40;;;1.30;;
50781;SDS011;36749;37.428;-121.972;2023-06-10T07:58:46;4.03;;;1.45;;
50781;SDS011;36749;37.428;-121.972;2023-06-10T08:01:13;4.03;;;1.60;;
50781;SDS011;36749;37.428;-121.972;2023-06-10T08:03:39;1.90;;;1.40;;
50781;SDS011;36749;37.428;-121.972;2023-06-10T08:06:05;2.13;;;1.30;;
50781;SDS011;36749;37.428;-121.972;2023-06-10T08:08:31;2.47;;;1.33;;
50781;SDS011;36749;37.428;-121.972;2023-06-10T08:10:59;2.10;;;1.25;;
50781;SDS011;36749;37.428;-121.972;2023-06-10T08:13:26;1.90;;;1.38;;
50781;SDS011;36749;37.428;-121.972;2023-06-10T08:15:52;2.38;;;1.30;;
50781;SDS011;36749;37.428;-121.972;2023-06-10T08:18:20;4.63;;;1.45;;
50781;SDS011;36749;37.428;-121.972;2023-06-10T08:20:46;5.22;;;1.65;;
50781;SDS011;36749;37.428;-121.972;2023-06-10T08:23:13;3.38;;;1.77;;
50781;SDS011;36749;37.428;-121.972;2023-06-10T08:25:39;3.15;;;1.52;;
50781;SDS011;36749;37.428;-121.972;2023-06-10T08:28:06;2.45;;;1.50;;
50781;SDS011;36749;37.428;-121.972;2023-06-10T08:30:32;1.88;;;1.73;;
50781;SDS011;36749;37.428;-121.972;2023-06-10T08:32:59;1.70;;;1.45;;
50781;SDS011;36749;37.428;-121.972;2023-06-10T08:35:25;3.78;;;2.33;;
50781;SDS011;36749;37.428;-121.972;2023-06-10T08:37:51;3.15;;;1.85;;
50781;SDS011;36749;37.428;-121.972;2023-06-10T08:40:18;3.00;;;1.77;;
50781;SDS011;36749;37.428;-121.972;2023-06-10T08:42:49;4.18;;;1.80;;
50781;SDS011;36749;37.428;-121.972;2023-06-10T08:45:20;2.65;;;1.58;;
50781;SDS011;36749;37.428;-121.972;2023-06-10T08:47:46;4.93;;;1.67;;
50781;SDS011;36749;37.428;-121.972;2023-06-10T08:50:17;3.95;;;1.83;;
50781;SDS011;36749;37.428;-121.972;2023-06-10T08:52:44;5.45;;;1.80;;
50781;SDS011;36749;37.428;-121.972;2023-06-10T08:55:11;3.90;;;2.00;;
50781;SDS011;36749;37.428;-121.972;2023-06-10T08:57:38;6.38;;;1.73;;
50781;SDS011;36749;37.428;-121.972;2023-06-10T09:00:06;3.13;;;1.85;;
50781;SDS011;36749;37.428;-121.972;2023-06-10T09:02:32;2.47;;;1.70;;
50781;SDS011;36749;37.428;-121.972;2023-06-10T09:05:00;2.97;;;2.08;;
50781;SDS011;36749;37.428;-121.972;2023-06-10T09:07:26;2.10;;;1.80;;
50781;SDS011;36749;37.428;-121.972;2023-06-10T09:09:53;3.13;;;1.90;;
50781;SDS011;36749;37.428;-121.972;2023-06-10T09:12:19;4.55;;;2.50;;
50781;SDS011;36749;37.428;-121.972;2023-06-10T09:14:45;2.47;;;1.70;;
50781;SDS011;36749;37.428;-121.972;2023-06-10T09:17:11;4.43;;;1.90;;
50781;SDS011;36749;37.428;-121.972;2023-06-10T09:19:38;3.63;;;2.22;;
50781;SDS011;36749;37.428;-121.972;2023-06-10T09:22:04;3.33;;;2.10;;
50781;SDS011;36749;37.428;-121.972;2023-06-10T09:24:31;3.47;;;1.77;;
50781;SDS011;36749;37.428;-121.972;2023-06-10T09:27:04;4.00;;;1.88;;
50781;SDS011;36749;37.428;-121.972;2023-06-10T09:32:00;3.78;;;1.70;;
50781;SDS011;36749;37.428;-121.972;2023-06-10T09:34:26;3.78;;;2.10;;
50781;SDS011;36749;37.428;-121.972;2023-06-10T09:36:54;5.88;;;2.20;;
50781;SDS011;36749;37.428;-121.972;2023-06-10T09:39:21;2.67;;;1.77;;
50781;SDS011;36749;37.428;-121.972;2023-06-10T09:41:47;3.50;;;1.88;;
50781;SDS011;36749;37.428;-121.972;2023-06-10T09:44:18;3.35;;;1.83;;
50781;SDS011;36749;37.428;-121.972;2023-06-10T09:46:46;4.15;;;1.90;;
50781;SDS011;36749;37.428;-121.972;2023-06-10T09:49:13;2.47;;;2.00;;
50781;SDS011;36749;37.428;-121.972;2023-06-10T09:51:53;5.68;;;2.30;;
50781;SDS011;36749;37.428;-121.972;2023-06-10T09:54:20;5.25;;;2.20;;
50781;SDS011;36749;37.428;-121.972;2023-06-10T09:56:47;3.83;;;1.75;;
50781;SDS011;36749;37.428;-121.972;2023-06-10T09:59:14;2.38;;;1.60;;
50781;SDS011;36749;37.428;-121.972;2023-06-10T10:01:41;5.47;;;2.03;;
50781;SDS011;36749;37.428;-121.972;2023-06-10T10:04:07;8.85;;;2.40;;
50781;SDS011;36749;37.428;-121.972;2023-06-10T10:06:33;3.85;;;1.90;;
50781;SDS011;36749;37.428;-121.972;2023-06-10T10:09:00;2.05;;;1.92;;
50781;SDS011;36749;37.428;-121.972;2023-06-10T10:11:26;2.47;;;2.00;;
50781;SDS011;36749;37.428;-121.972;2023-06-10T10:13:53;2.65;;;1.90;;
50781;SDS011;36749;37.428;-121.972;2023-06-10T10:16:20;3.97;;;2.22;;
50781;SDS011;36749;37.428;-121.972;2023-06-10T10:18:55;2.50;;;1.77;;
50781;SDS011;36749;37.428;-121.972;2023-06-10T10:21:26;3.85;;;1.90;;
50781;SDS011;36749;37.428;-121.972;2023-06-10T10:23:58;4.32;;;2.22;;
50781;SDS011;36749;37.428;-121.972;2023-06-10T10:26:28;2.58;;;2.25;;
50781;SDS011;36749;37.428;-121.972;2023-06-10T10:29:03;3.65;;;1.92;;
50781;SDS011;36749;37.428;-121.972;2023-06-10T10:31:31;4.03;;;1.70;;
50781;SDS011;36749;37.428;-121.972;2023-06-10T10:33:59;2.92;;;2.15;;
50781;SDS011;36749;37.428;-121.972;2023-06-10T10:36:27;4.40;;;1.80;;
50781;SDS011;36749;37.428;-121.972;2023-06-10T10:38:54;3.45;;;1.90;;
50781;SDS011;36749;37.428;-121.972;2023-06-10T10:41:20;5.32;;;2.00;;
50781;SDS011;36749;37.428;-121.972;2023-06-10T10:43:48;5.82;;;1.95;;
50781;SDS011;36749;37.428;-121.972;2023-06-10T10:46:16;3.17;;;1.80;;
50781;SDS011;36749;37.428;-121.972;2023-06-10T10:48:43;3.22;;;2.28;;
50781;SDS011;36749;37.428;-121.972;2023-06-10T10:51:10;4.80;;;2.28;;
50781;SDS011;36749;37.428;-121.972;2023-06-10T10:53:37;6.40;;;2.20;;
50781;SDS011;36749;37.428;-121.972;2023-06-10T10:56:05;5.10;;;2.25;;
50781;SDS011;36749;37.428;-121.972;2023-06-10T10:58:32;4.90;;;2.00;;
50781;SDS011;36749;37.428;-121.972;2023-06-10T11:00:58;7.00;;;2.50;;
50781;SDS011;36749;37.428;-121.972;2023-06-10T11:03:27;5.97;;;2.33;;
50781;SDS011;36749;37.428;-121.972;2023-06-10T11:05:58;6.38;;;2.20;;
50781;SDS011;36749;37.428;-121.972;2023-06-10T11:10:56;5.38;;;2.05;;
50781;SDS011;36749;37.428;-121.972;2023-06-10T11:13:23;5.05;;;2.58;;
50781;SDS011;36749;37.428;-121.972;2023-06-10T11:15:52;3.95;;;2.00;;
50781;SDS011;36749;37.428;-121.972;2023-06-10T11:20:53;5.07;;;2.55;;
50781;SDS011;36749;37.428;-121.972;2023-06-10T11:26:12;3.30;;;2.00;;
50781;SDS011;36749;37.428;-121.972;2023-06-10T11:29:03;3.88;;;2.45;;
50781;SDS011;36749;37.428;-121.972;2023-06-10T11:33:59;5.50;;;2.00;;
50781;SDS011;36749;37.428;-121.972;2023-06-10T11:36:28;4.82;;;2.20;;
50781;SDS011;36749;37.428;-121.972;2023-06-10T11:39:01;2.90;;;2.13;;
50781;SDS011;36749;37.428;-121.972;2023-06-10T11:41:29;4.20;;;2.22;;
50781;SDS011;36749;37.428;-121.972;2023-06-10T11:44:03;5.88;;;2.63;;
50781;SDS011;36749;37.428;-121.972;2023-06-10T11:46:30;5.05;;;2.78;;
50781;SDS011;36749;37.428;-121.972;2023-06-10T11:49:00;6.32;;;2.45;;
50781;SDS011;36749;37.428;-121.972;2023-06-10T11:51:29;2.92;;;2.10;;
50781;SDS011;36749;37.428;-121.972;2023-06-10T11:53:57;2.35;;;2.15;;
50781;SDS011;36749;37.428;-121.972;2023-06-10T11:56:27;5.20;;;2.33;;
50781;SDS011;36749;37.428;-121.972;2023-06-10T11:58:55;6.65;;;2.58;;
50781;SDS011;36749;37.428;-121.972;2023-06-10T12:01:26;5.13;;;2.28;;
50781;SDS011;36749;37.428;-121.972;2023-06-10T12:06:38;8.40;;;2.30;;
50781;SDS011;36749;37.428;-121.972;2023-06-10T12:09:06;3.88;;;2.20;;
50781;SDS011;36749;37.428;-121.972;2023-06-10T12:11:38;6.10;;;2.97;;
50781;SDS011;36749;37.428;-121.972;2023-06-10T12:14:05;4.95;;;2.17;;
50781;SDS011;36749;37.428;-121.972;2023-06-10T12:16:31;4.22;;;2.25;;
50781;SDS011;36749;37.428;-121.972;2023-06-10T12:19:03;5.45;;;2.78;;
50781;SDS011;36749;37.428;-121.972;2023-06-10T12:21:31;7.35;;;2.58;;
50781;SDS011;36749;37.428;-121.972;2023-06-10T12:26:38;6.25;;;2.38;;
50781;SDS011;36749;37.428;-121.972;2023-06-10T12:29:23;13.43;;;2.53;;
50781;SDS011;36749;37.428;-121.972;2023-06-10T12:31:53;6.00;;;2.65;;
50781;SDS011;36749;37.428;-121.972;2023-06-10T12:34:39;3.72;;;2.33;;
50781;SDS011;36749;37.428;-121.972;2023-06-10T12:37:09;4.32;;;2.50;;
50781;SDS011;36749;37.428;-121.972;2023-06-10T12:39:40;8.45;;;2.80;;
50781;SDS011;36749;37.428;-121.972;2023-06-10T12:42:08;9.88;;;3.72;;
50781;SDS011;36749;37.428;-121.972;2023-06-10T12:44:35;5.97;;;2.80;;
50781;SDS011;36749;37.428;-121.972;2023-06-10T12:47:08;5.50;;;2.72;;
50781;SDS011;36749;37.428;-121.972;2023-06-10T12:49:36;5.70;;;2.22;;
50781;SDS011;36749;37.428;-121.972;2023-06-10T12:52:03;5.47;;;2.53;;
50781;SDS011;36749;37.428;-121.972;2023-06-10T12:54:29;5.32;;;2.55;;
50781;SDS011;36749;37.428;-121.972;2023-06-10T12:56:55;9.68;;;3.10;;
50781;SDS011;36749;37.428;-121.972;2023-06-10T12:59:23;7.13;;;3.28;;
50781;SDS011;36749;37.428;-121.972;2023-06-10T13:01:51;5.60;;;2.75;;
50781;SDS011;36749;37.428;-121.972;2023-06-10T13:04:17;4.25;;;2.90;;
50781;SDS011;36749;37.428;-121.972;2023-06-10T13:06:44;7.85;;;3.47;;
50781;SDS011;36749;37.428;-121.972;2023-06-10T13:09:10;7.10;;;3.13;;
50781;SDS011;36749;37.428;-121.972;2023-06-10T13:11:36;26.13;;;3.97;;
50781;SDS011;36749;37.428;-121.972;2023-06-10T13:14:03;13.20;;;3.97;;
50781;SDS011;36749;37.428;-121.972;2023-06-10T13:16:31;9.50;;;3.03;;
50781;SDS011;36749;37.428;-121.972;2023-06-10T13:18:58;5.75;;;2.67;;
50781;SDS011;36749;37.428;-121.972;2023-06-10T13:21:26;5.97;;;3.00;;
50781;SDS011;36749;37.428;-121.972;2023-06-10T13:23:52;5.40;;;3.05;;
50781;SDS011;36749;37.428;-121.972;2023-06-10T13:26:18;6.40;;;2.90;;
50781;SDS011;36749;37.428;-121.972;2023-06-10T13:28:44;6.47;;;2.72;;
50781;SDS011;36749;37.428;-121.972;2023-06-10T13:31:10;7.60;;;2.80;;
50781;SDS011;36749;37.428;-121.972;2023-06-10T13:33:37;8.90;;;3.25;;
50781;SDS011;36749;37.428;-121.972;2023-06-10T13:36:04;4.28;;;2.60;;
50781;SDS011;36749;37.428;-121.972;2023-06-10T13:38:30;9.02;;;2.97;;
50781;SDS011;36749;37.428;-121.972;2023-06-10T13:40:57;4.93;;;2.72;;
50781;SDS011;36749;37.428;-121.972;2023-06-10T13:43:23;4.20;;;2.67;;
50781;SDS011;36749;37.428;-121.972;2023-06-10T13:45:49;8.25;;;3.10;;
50781;SDS011;36749;37.428;-121.972;2023-06-10T13:48:15;8.25;;;2.95;;
50781;SDS011;36749;37.428;-121.972;2023-06-10T13:50:41;8.07;;;3.20;;
50781;SDS011;36749;37.428;-121.972;2023-06-10T13:53:11;4.97;;;3.08;;
50781;SDS011;36749;37.428;-121.972;2023-06-10T13:55:37;5.95;;;2.90;;
50781;SDS011;36749;37.428;-121.972;2023-06-10T13:58:04;7.53;;;3.28;;
50781;SDS011;36749;37.428;-121.972;2023-06-10T14:00:30;5.20;;;2.80;;
50781;SDS011;36749;37.428;-121.972;2023-06-10T14:02:57;6.28;;;2.72;;
50781;SDS011;36749;37.428;-121.972;2023-06-10T14:05:23;6.05;;;3.10;;
50781;SDS011;36749;37.428;-121.972;2023-06-10T14:07:49;2.60;;;2.40;;
50781;SDS011;36749;37.428;-121.972;2023-06-10T14:10:15;6.53;;;2.95;;
50781;SDS011;36749;37.428;-121.972;2023-06-10T14:12:41;7.43;;;3.05;;
50781;SDS011;36749;37.428;-121.972;2023-06-10T14:15:08;4.60;;;2.80;;
50781;SDS011;36749;37.428;-121.972;2023-06-10T14:17:34;6.38;;;3.13;;
50781;SDS011;36749;37.428;-121.972;2023-06-10T14:20:00;4.32;;;2.72;;
50781;SDS011;36749;37.428;-121.972;2023-06-10T14:22:27;6.10;;;2.80;;
50781;SDS011;36749;37.428;-121.972;2023-06-10T14:24:53;7.53;;;3.67;;
50781;SDS011;36749;37.428;-121.972;2023-06-10T14:27:19;6.25;;;3.42;;
50781;SDS011;36749;37.428;-121.972;2023-06-10T14:29:46;7.93;;;3.10;;
50781;SDS011;36749;37.428;-121.972;2023-06-10T14:32:12;5.88;;;2.60;;
50781;SDS011;36749;37.428;-121.972;2023-06-10T14:34:38;7.72;;;3.60;;